San Miguel de Allende, Mexico

12:30 PM CDT on July 30, 2016 (GMT -0500)
Atascadero - La Palmita | | Change Station

Elev 6650 ft 20.91 °N, 100.73 °W | Updated 4 minutes ago

Mostly Cloudy
Mostly Cloudy
71.4 °F
Feels Like 75 °F
N
0.0
Wind Variable Wind from NE
Gusts 6.0 mph

Today
High -- | Low -- °F
--% Chance of Precip.
Yesterday
High -- | Low -- °F
Precip. -- in
Pressure 30.34 in
Visibility 6.0 miles
Clouds Mostly Cloudy 2000 ft
Mostly Cloudy 12000 ft
Mostly Cloudy 25000 ft
Heat Index 75 °F
Dew Point 60 °F
Humidity 67%
Rainfall 0.00 in
Snow Depth Not available.
7:16 AM 8:22 PM
Waning Crescent, 12% visible
METAR MMQT 301645Z 07007KT 6SM BKN020 BKN120 BKN250 21/13 A3034 RMK 8/532 HZY
Pressure 30.34 in
Visibility 6.0 miles
Clouds Mostly Cloudy 2000 ft
Mostly Cloudy 12000 ft
Mostly Cloudy 25000 ft
Heat Index 75 °F
Dew Point 60 °F
Humidity 67%
Rainfall 0.00 in
Snow Depth Not available.
7:16 AM 8:22 PM
Waning Crescent, 12% visible
METAR MMQT 301645Z 07007KT 6SM BKN020 BKN120 BKN250 21/13 A3034 RMK 8/532 HZY

10-Day Weather Forecast

No radar image for this location.
×

Almanac

Astronomy

Jul. 30, 2016 Rise Set
Actual Time
Civil Twilight
Nautical Twilight
Astronomical Twilight
Moon
Length of Visible Light
Length of Day
Tomorrow will be .
, % of the Moon is Illuminated

Today's Extremes

Country Highs Country Lows

Community

WunderPhotos

Upload Photos

1,928,600 photos uploaded!

WunderBlog® & News

Nearby

Air Quality

  Air Quality AQ Index Pollutant
Not available.

Snow Depth

Station Depth Elevation

Earthquake Activity

City Distance Mag. Time & Date
Minimum magnitude displayed is 2.5.

Coastal Water Temperatures

Place Temperature

Stations

Nearby Weather Stations

Station Location Temp. Windchill Dew Point Humidity Wind Precip. Elev Updated Type